createdAt,value
2022-12-11T00:00:24.371Z,18.58
2022-12-11T00:02:50.835Z,19.42
2022-12-11T00:05:17.391Z,17.10
2022-12-11T00:07:43.887Z,16.25
2022-12-11T00:10:10.378Z,17.15
2022-12-11T00:12:36.768Z,16.85
2022-12-11T00:15:03.388Z,16.58
2022-12-11T00:17:30.891Z,17.02
2022-12-11T00:19:57.338Z,16.92
2022-12-11T00:22:23.783Z,16.02
2022-12-11T00:24:50.586Z,16.73
2022-12-11T00:27:16.959Z,17.65
2022-12-11T00:29:43.421Z,17.15
2022-12-11T00:32:09.843Z,18.15
2022-12-11T00:34:36.277Z,18.98
2022-12-11T00:37:02.776Z,17.15
2022-12-11T00:39:29.273Z,18.00
2022-12-11T00:41:55.687Z,17.92
2022-12-11T00:44:22.099Z,18.23
2022-12-11T00:46:48.533Z,18.50
2022-12-11T00:49:14.958Z,19.15
2022-12-11T00:51:41.438Z,18.83
2022-12-11T00:54:07.862Z,18.80
2022-12-11T00:56:34.343Z,18.48
2022-12-11T00:59:00.839Z,17.65
2022-12-11T01:01:27.265Z,18.30
2022-12-11T01:03:54.124Z,18.65
2022-12-11T01:06:27.345Z,18.30
2022-12-11T01:09:14.482Z,17.35
2022-12-11T01:11:42.791Z,17.83
2022-12-11T01:14:12.896Z,18.85
2022-12-11T01:16:39.369Z,17.40
2022-12-11T01:19:05.805Z,19.13
2022-12-11T01:21:32.253Z,19.23
2022-12-11T01:23:58.718Z,17.85
2022-12-11T01:26:25.325Z,19.05
2022-12-11T01:28:52.372Z,18.63
2022-12-11T01:31:20.295Z,19.42
2022-12-11T01:33:46.861Z,18.17
2022-12-11T01:36:18.019Z,19.38
2022-12-11T01:38:46.253Z,18.52
2022-12-11T01:41:13.283Z,18.08
2022-12-11T01:47:26.892Z,18.30
2022-12-11T01:49:53.296Z,19.73
2022-12-11T01:52:21.945Z,18.05
2022-12-11T01:54:48.744Z,18.60
2022-12-11T01:57:16.008Z,20.08
2022-12-11T01:59:46.345Z,19.23
2022-12-11T02:02:19.149Z,19.70
2022-12-11T02:04:46.278Z,19.15
2022-12-11T02:07:12.671Z,19.27
2022-12-11T02:09:41.390Z,19.17
2022-12-11T02:12:31.686Z,19.30
2022-12-11T02:15:19.800Z,18.35
2022-12-11T02:18:05.005Z,24.83
2022-12-11T02:20:34.083Z,25.20
2022-12-11T02:23:12.684Z,20.40
2022-12-11T02:26:18.119Z,21.10
2022-12-11T02:28:57.363Z,20.00
2022-12-11T02:31:45.830Z,19.45
2022-12-11T02:34:16.178Z,19.67
2022-12-11T02:36:46.816Z,19.90
2022-12-11T02:39:16.071Z,19.55
2022-12-11T02:41:47.036Z,18.63
2022-12-11T02:44:16.895Z,19.73
2022-12-11T02:46:44.729Z,20.05
2022-12-11T02:49:13.402Z,20.38
2022-12-11T02:51:41.900Z,19.02
2022-12-11T02:54:13.961Z,20.05
2022-12-11T02:56:47.975Z,18.55
2022-12-11T02:59:19.057Z,18.92
2022-12-11T03:01:47.017Z,19.30
2022-12-11T03:04:13.847Z,19.33
2022-12-11T03:06:46.598Z,19.23
2022-12-11T03:09:13.035Z,18.77
2022-12-11T03:11:39.442Z,18.55
2022-12-11T03:14:07.690Z,18.90
2022-12-11T03:16:37.172Z,19.00
2022-12-11T03:19:29.944Z,18.02
2022-12-11T03:22:36.965Z,19.02
2022-12-11T03:25:06.824Z,19.90
2022-12-11T03:27:41.338Z,17.83
2022-12-11T03:30:13.016Z,19.48
2022-12-11T03:33:08.439Z,20.30
2022-12-11T03:35:47.793Z,19.92
2022-12-11T03:38:28.898Z,20.95
2022-12-11T03:41:00.804Z,19.73
2022-12-11T03:43:31.943Z,18.52
2022-12-11T03:45:59.705Z,19.15
2022-12-11T03:48:33.015Z,19.08
2022-12-11T03:51:03.778Z,19.65
2022-12-11T03:53:31.224Z,20.13
2022-12-11T03:56:00.102Z,20.50
2022-12-11T03:58:26.592Z,19.35
2022-12-11T04:00:53.016Z,19.75
2022-12-11T04:03:19.523Z,20.50
2022-12-11T04:05:52.704Z,19.48
2022-12-11T04:08:23.089Z,19.48
2022-12-11T04:11:13.351Z,19.77
2022-12-11T04:13:41.453Z,20.80
2022-12-11T04:16:08.796Z,20.73
2022-12-11T04:18:54.170Z,20.48
2022-12-11T04:21:39.801Z,21.23
2022-12-11T04:24:17.684Z,20.52
2022-12-11T04:26:46.019Z,20.15
2022-12-11T04:29:13.259Z,20.45
2022-12-11T04:31:39.994Z,20.15
2022-12-11T04:34:06.464Z,21.15
2022-12-11T04:36:32.983Z,19.70
2022-12-11T04:38:59.415Z,20.38
2022-12-11T04:41:25.956Z,20.27
2022-12-11T04:43:52.469Z,20.25
2022-12-11T04:46:21.571Z,19.80
2022-12-11T04:48:53.830Z,19.05
2022-12-11T04:51:24.448Z,19.08
2022-12-11T04:53:50.861Z,19.67
2022-12-11T04:56:17.468Z,18.08
2022-12-11T04:58:44.680Z,20.00
2022-12-11T05:01:15.113Z,20.90
2022-12-11T05:03:42.439Z,19.08
2022-12-11T05:06:10.456Z,19.38
2022-12-11T05:08:40.167Z,18.90
2022-12-11T05:11:12.350Z,18.80
2022-12-11T05:13:39.666Z,18.83
2022-12-11T05:16:08.003Z,18.35
2022-12-11T05:18:34.836Z,18.17
2022-12-11T05:21:03.943Z,18.83
2022-12-11T05:23:37.515Z,17.55
2022-12-11T05:26:07.963Z,18.55
2022-12-11T05:28:36.760Z,18.08
2022-12-11T05:31:06.487Z,17.75
2022-12-11T05:33:34.233Z,17.05
2022-12-11T05:36:01.188Z,17.20
2022-12-11T05:38:27.603Z,16.80
2022-12-11T05:41:05.855Z,16.83
2022-12-11T05:43:35.068Z,17.02
2022-12-11T05:46:09.214Z,16.27
2022-12-11T05:48:38.281Z,16.63
2022-12-11T05:51:06.402Z,15.23
2022-12-11T05:53:33.413Z,17.27
2022-12-11T05:56:27.108Z,15.80
2022-12-11T05:58:54.256Z,16.08
2022-12-11T06:01:27.600Z,16.70
2022-12-11T06:03:55.330Z,16.23
2022-12-11T06:06:22.000Z,16.55
2022-12-11T06:08:53.240Z,17.13
2022-12-11T06:11:23.985Z,15.88
2022-12-11T06:13:52.051Z,17.33
2022-12-11T06:16:22.191Z,14.82
2022-12-11T06:18:48.971Z,16.23
2022-12-11T06:21:16.604Z,15.52
2022-12-11T06:23:43.979Z,15.73
2022-12-11T06:26:11.274Z,16.40
2022-12-11T06:28:45.065Z,15.35
2022-12-11T06:31:12.008Z,16.63
2022-12-11T06:33:38.891Z,14.70
2022-12-11T06:36:11.382Z,15.85
2022-12-11T06:38:38.542Z,15.30
2022-12-11T06:41:06.948Z,15.27
2022-12-11T06:43:38.759Z,14.55
2022-12-11T06:46:06.792Z,15.90
2022-12-11T06:48:34.100Z,14.75
2022-12-11T06:51:04.601Z,14.48
2022-12-11T06:53:31.008Z,13.77
2022-12-11T06:56:02.582Z,13.38
2022-12-11T06:58:28.996Z,15.10
2022-12-11T07:01:15.978Z,13.25
2022-12-11T07:03:42.497Z,15.00
2022-12-11T07:06:09.144Z,13.23
2022-12-11T07:08:35.643Z,13.13
2022-12-11T07:11:04.357Z,13.48
2022-12-11T07:13:30.843Z,13.18
2022-12-11T07:15:59.375Z,13.68
2022-12-11T07:18:26.517Z,12.88
2022-12-11T07:20:52.930Z,13.43
2022-12-11T07:23:19.626Z,14.43
2022-12-11T07:25:49.374Z,13.48
2022-12-11T07:28:16.903Z,13.40
2022-12-11T07:30:43.577Z,13.52
2022-12-11T07:33:09.998Z,12.57
2022-12-11T07:35:36.747Z,12.63
2022-12-11T07:38:03.449Z,11.98
2022-12-11T07:40:29.892Z,12.05
2022-12-11T07:42:56.333Z,10.00
2022-12-11T07:45:31.944Z,10.63
2022-12-11T07:47:59.015Z,10.25
2022-12-11T07:50:25.763Z,10.10
2022-12-11T07:52:52.574Z,10.23
2022-12-11T07:55:19.150Z,13.10
2022-12-11T07:57:45.644Z,12.40
2022-12-11T08:00:12.410Z,11.32
2022-12-11T08:02:43.975Z,10.98
2022-12-11T08:05:10.864Z,11.45
2022-12-11T08:07:37.456Z,10.60
2022-12-11T08:10:04.817Z,10.63
2022-12-11T08:12:37.326Z,11.00
2022-12-11T08:15:04.343Z,10.25
2022-12-11T08:17:44.124Z,11.13
2022-12-11T08:20:15.144Z,10.65
2022-12-11T08:22:58.888Z,10.75
2022-12-11T08:25:26.712Z,11.48
2022-12-11T08:27:57.159Z,23.75
2022-12-11T08:30:23.837Z,17.27
2022-12-11T08:32:52.431Z,18.25
2022-12-11T08:35:21.032Z,15.32
2022-12-11T08:37:48.462Z,16.25
2022-12-11T08:40:19.027Z,14.00
2022-12-11T08:42:45.523Z,13.00
2022-12-11T08:45:12.236Z,13.13
2022-12-11T08:47:38.830Z,12.75
2022-12-11T08:50:05.788Z,12.60
2022-12-11T08:52:34.665Z,12.82
2022-12-11T08:55:01.058Z,15.98
2022-12-11T08:57:30.538Z,17.15
2022-12-11T08:59:56.943Z,16.30
2022-12-11T09:02:23.413Z,14.75
2022-12-11T09:04:50.511Z,15.13
2022-12-11T09:07:17.024Z,13.90
2022-12-11T09:09:43.442Z,13.63
2022-12-11T09:12:09.919Z,13.38
2022-12-11T09:14:36.459Z,13.57
2022-12-11T09:17:04.075Z,13.55
2022-12-11T09:19:32.397Z,13.65
2022-12-11T09:21:59.184Z,11.70
2022-12-11T09:24:25.659Z,12.68
2022-12-11T09:26:52.079Z,10.82
2022-12-11T09:29:18.498Z,11.68
2022-12-11T09:31:57.860Z,11.95
2022-12-11T09:34:30.755Z,12.00
2022-12-11T09:36:58.730Z,13.63
2022-12-11T09:39:41.671Z,13.68
2022-12-11T09:42:49.035Z,12.55
2022-12-11T09:48:02.418Z,10.45
2022-12-11T09:50:41.681Z,10.75
2022-12-11T09:53:18.771Z,10.75
2022-12-11T09:55:54.019Z,11.38
2022-12-11T09:58:32.711Z,11.63
2022-12-11T10:01:35.181Z,11.13
2022-12-11T10:04:37.691Z,10.63
2022-12-11T10:07:44.938Z,9.88
2022-12-11T10:10:41.429Z,10.65
2022-12-11T10:13:37.333Z,10.98
2022-12-11T10:16:46.550Z,10.32
2022-12-11T10:19:32.807Z,8.88
2022-12-11T10:22:24.319Z,8.77
2022-12-11T10:25:10.557Z,7.60
2022-12-11T10:27:41.041Z,8.32
2022-12-11T10:30:14.679Z,8.57
2022-12-11T10:32:50.284Z,9.05
2022-12-11T10:35:35.568Z,8.07
2022-12-11T10:38:15.686Z,9.38
2022-12-11T10:40:46.100Z,9.05
2022-12-11T10:43:12.984Z,8.80
2022-12-11T10:45:39.754Z,9.50
2022-12-11T10:48:22.149Z,8.60
2022-12-11T10:51:02.448Z,8.55
2022-12-11T10:53:30.233Z,7.68
2022-12-11T10:56:02.536Z,7.40
2022-12-11T10:58:34.107Z,7.57
2022-12-11T11:01:06.282Z,7.13
2022-12-11T11:04:17.628Z,6.82
2022-12-11T11:06:44.244Z,8.30
2022-12-11T11:09:39.711Z,10.35
2022-12-11T11:12:48.837Z,8.30
2022-12-11T11:15:40.033Z,7.45
2022-12-11T11:18:26.485Z,8.70
2022-12-11T11:20:54.170Z,9.85
2022-12-11T11:23:21.932Z,10.00
2022-12-11T11:25:59.797Z,10.10
2022-12-11T11:29:03.030Z,10.10
2022-12-11T11:31:35.828Z,9.38
2022-12-11T11:34:21.071Z,10.38
2022-12-11T11:36:57.297Z,10.18
2022-12-11T11:39:37.440Z,9.70
2022-12-11T11:42:03.889Z,10.00
2022-12-11T11:45:16.244Z,10.68
2022-12-11T11:48:03.091Z,9.80
2022-12-11T11:50:35.675Z,10.07
2022-12-11T11:53:14.259Z,9.38
2022-12-11T11:56:02.327Z,8.52
2022-12-11T11:58:44.852Z,8.10
2022-12-11T12:01:26.450Z,8.00
2022-12-11T12:04:13.487Z,8.35
2022-12-11T12:06:57.501Z,9.00
2022-12-11T12:09:52.551Z,8.13
2022-12-11T12:13:00.919Z,9.27
2022-12-11T12:15:43.993Z,8.80
2022-12-11T12:18:43.488Z,9.38
2022-12-11T12:21:34.158Z,9.52
2022-12-11T12:24:36.724Z,9.35
2022-12-11T12:27:51.517Z,8.85
2022-12-11T12:30:22.352Z,10.15
2022-12-11T12:33:25.902Z,9.90
2022-12-11T12:36:11.720Z,10.25
2022-12-11T12:39:02.026Z,9.50
2022-12-11T12:42:07.933Z,10.10
2022-12-11T12:44:57.500Z,9.85
2022-12-11T12:47:36.920Z,10.48
2022-12-11T12:50:19.676Z,9.95
2022-12-11T12:52:54.097Z,10.50
2022-12-11T12:55:36.305Z,9.57
2022-12-11T12:58:07.360Z,10.10
2022-12-11T13:00:44.423Z,10.57
2022-12-11T13:03:36.280Z,10.18
2022-12-11T13:06:09.428Z,10.75
2022-12-11T13:08:46.786Z,11.00
2022-12-11T13:11:30.272Z,10.13
2022-12-11T13:14:16.049Z,10.88
2022-12-11T13:16:45.869Z,8.77
2022-12-11T13:19:27.628Z,10.75
2022-12-11T13:22:06.197Z,12.30
2022-12-11T13:25:01.450Z,11.93
2022-12-11T13:27:43.462Z,10.73
2022-12-11T13:30:16.399Z,12.93
2022-12-11T13:33:19.123Z,12.95
2022-12-11T13:36:24.897Z,12.80
2022-12-11T13:39:30.350Z,12.55
2022-12-11T13:42:01.094Z,12.38
2022-12-11T13:44:39.456Z,14.35
2022-12-11T13:47:13.997Z,15.15
2022-12-11T13:49:44.720Z,14.25
2022-12-11T13:52:31.039Z,15.23
2022-12-11T13:54:59.528Z,14.10
2022-12-11T13:57:30.378Z,13.15
2022-12-11T13:59:59.394Z,12.85
2022-12-11T14:02:34.128Z,11.02
2022-12-11T14:05:12.895Z,11.05
2022-12-11T14:08:11.517Z,11.43
2022-12-11T14:10:40.118Z,11.05
2022-12-11T14:13:19.589Z,13.25
2022-12-11T14:15:48.217Z,12.45
2022-12-11T14:18:22.112Z,11.98
2022-12-11T14:21:27.260Z,14.93
2022-12-11T14:24:00.294Z,15.27
2022-12-11T14:26:35.730Z,17.33
2022-12-11T14:29:06.514Z,16.75
2022-12-11T14:31:48.591Z,15.43
2022-12-11T14:34:24.930Z,21.55
2022-12-11T14:36:56.941Z,21.48
2022-12-11T14:39:31.511Z,19.88
2022-12-11T14:42:07.331Z,17.05
2022-12-11T14:44:48.842Z,16.70
2022-12-11T14:47:29.291Z,16.75
2022-12-11T14:50:33.404Z,15.43
2022-12-11T14:53:18.104Z,11.10
2022-12-11T14:56:08.194Z,13.15
2022-12-11T14:58:42.094Z,11.70
2022-12-11T15:01:24.574Z,11.85
2022-12-11T15:04:15.934Z,11.73
2022-12-11T15:06:45.918Z,11.23
2022-12-11T15:09:26.442Z,11.73
2022-12-11T15:12:19.351Z,11.43
2022-12-11T15:15:14.500Z,12.23
2022-12-11T15:17:52.711Z,12.63
2022-12-11T15:20:37.904Z,12.95
2022-12-11T15:23:07.690Z,11.80
2022-12-11T15:26:00.032Z,10.63
2022-12-11T15:28:58.986Z,9.50
2022-12-11T15:31:36.716Z,10.18
2022-12-11T15:34:03.397Z,10.93
2022-12-11T15:36:54.892Z,10.93
2022-12-11T15:39:21.418Z,9.88
2022-12-11T15:42:25.752Z,10.70
2022-12-11T15:44:55.888Z,11.43
2022-12-11T15:47:39.699Z,12.02
2022-12-11T15:50:16.447Z,12.70
2022-12-11T15:52:43.346Z,13.32
2022-12-11T15:55:25.567Z,13.20
2022-12-11T15:58:15.527Z,14.93
2022-12-11T16:00:54.984Z,14.55
2022-12-11T16:03:32.677Z,14.88
2022-12-11T16:06:13.537Z,14.60
2022-12-11T16:08:41.043Z,12.93
2022-12-11T16:11:17.412Z,13.02
2022-12-11T16:13:45.822Z,13.88
2022-12-11T16:16:13.335Z,15.30
2022-12-11T16:18:46.700Z,14.80
2022-12-11T16:21:18.202Z,17.67
2022-12-11T16:23:47.650Z,15.80
2022-12-11T16:26:15.629Z,16.63
2022-12-11T16:28:44.090Z,12.68
2022-12-11T16:31:22.376Z,10.48
2022-12-11T16:33:50.877Z,11.20
2022-12-11T16:36:19.559Z,10.95
2022-12-11T16:39:00.538Z,11.75
2022-12-11T16:41:29.043Z,10.68
2022-12-11T16:44:12.088Z,10.98
2022-12-11T16:46:38.590Z,11.15
2022-12-11T16:49:05.214Z,10.98
2022-12-11T16:51:41.512Z,11.70
2022-12-11T16:54:14.068Z,11.57
2022-12-11T16:56:41.565Z,12.88
2022-12-11T16:59:29.949Z,13.07
2022-12-11T17:02:13.073Z,13.63
2022-12-11T17:05:01.614Z,14.75
2022-12-11T17:07:28.316Z,13.93
2022-12-11T17:10:00.555Z,13.82
2022-12-11T17:12:27.964Z,12.68
2022-12-11T17:14:55.339Z,14.65
2022-12-11T17:17:21.777Z,25.50
2022-12-11T17:19:48.221Z,29.58
2022-12-11T17:22:19.340Z,33.85
2022-12-11T17:24:46.909Z,21.15
2022-12-11T17:27:15.372Z,14.45
2022-12-11T17:30:13.385Z,39.03
2022-12-11T17:32:39.882Z,29.67
2022-12-11T17:35:11.692Z,16.92
2022-12-11T17:37:54.639Z,14.77
2022-12-11T17:40:22.549Z,11.82
2022-12-11T17:42:57.223Z,12.85
2022-12-11T17:45:23.612Z,15.77
2022-12-11T17:47:57.380Z,16.67
2022-12-11T17:50:32.818Z,14.45
2022-12-11T17:53:00.270Z,13.63
2022-12-11T17:55:42.699Z,14.98
2022-12-11T17:58:19.613Z,13.98
2022-12-11T18:00:47.585Z,13.60
2022-12-11T18:03:19.453Z,13.13
2022-12-11T18:05:51.496Z,13.27
2022-12-11T18:08:26.295Z,12.48
2022-12-11T18:10:53.854Z,11.90
2022-12-11T18:13:21.228Z,12.48
2022-12-11T18:15:48.483Z,13.43
2022-12-11T18:18:15.303Z,11.88
2022-12-11T18:20:41.819Z,12.80
2022-12-11T18:23:08.332Z,14.25
2022-12-11T18:25:34.783Z,12.60
2022-12-11T18:28:01.315Z,13.38
2022-12-11T18:30:28.821Z,12.38
2022-12-11T18:32:55.351Z,12.52
2022-12-11T18:35:21.833Z,12.48
2022-12-11T18:37:48.338Z,11.23
2022-12-11T18:40:14.769Z,11.93
2022-12-11T18:42:41.252Z,12.85
2022-12-11T18:45:08.320Z,11.20
2022-12-11T18:47:35.435Z,10.88
2022-12-11T18:50:07.412Z,11.07
2022-12-11T18:52:34.747Z,10.13
2022-12-11T18:55:05.813Z,10.02
2022-12-11T18:57:58.212Z,11.02
2022-12-11T19:00:24.948Z,11.57
2022-12-11T19:02:52.552Z,11.38
2022-12-11T19:05:19.059Z,13.93
2022-12-11T19:08:12.252Z,13.63
2022-12-11T19:10:47.395Z,12.63
2022-12-11T19:13:14.552Z,12.73
2022-12-11T19:15:43.629Z,13.52
2022-12-11T19:18:10.930Z,12.75
2022-12-11T19:21:04.643Z,14.80
2022-12-11T19:23:25.683Z,15.02
2022-12-11T19:25:52.153Z,15.00
2022-12-11T19:28:18.871Z,14.48
2022-12-11T19:30:49.757Z,15.23
2022-12-11T19:33:29.717Z,17.10
2022-12-11T19:36:30.934Z,15.13
2022-12-11T19:39:09.780Z,15.70
2022-12-11T19:41:39.371Z,14.93
2022-12-11T19:44:27.449Z,14.77
2022-12-11T19:46:54.043Z,14.88
2022-12-11T19:49:21.773Z,13.73
2022-12-11T19:51:48.277Z,12.35
2022-12-11T19:54:41.731Z,12.45
2022-12-11T19:57:19.302Z,14.25
2022-12-11T19:59:45.737Z,11.25
2022-12-11T20:02:14.338Z,11.35
2022-12-11T20:04:42.006Z,11.32
2022-12-11T20:07:30.799Z,12.52
2022-12-11T20:09:57.493Z,11.23
2022-12-11T20:12:30.185Z,11.35
2022-12-11T20:14:58.697Z,11.70
2022-12-11T20:17:33.470Z,12.32
2022-12-11T20:20:00.316Z,13.25
2022-12-11T20:22:35.008Z,12.63
2022-12-11T20:25:01.447Z,13.30
2022-12-11T20:27:28.425Z,13.60
2022-12-11T20:30:02.661Z,13.70
2022-12-11T20:32:29.092Z,12.80
2022-12-11T20:34:58.895Z,13.75
2022-12-11T20:37:25.970Z,12.25
2022-12-11T20:39:52.410Z,12.90
2022-12-11T20:42:18.819Z,13.00
2022-12-11T20:44:48.922Z,15.18
2022-12-11T20:47:16.015Z,14.80
2022-12-11T20:49:42.452Z,14.93
2022-12-11T20:52:08.886Z,13.93
2022-12-11T20:54:35.301Z,13.48
2022-12-11T20:57:01.751Z,14.30
2022-12-11T20:59:29.258Z,13.32
2022-12-11T21:01:56.088Z,12.18
2022-12-11T21:04:23.304Z,11.85
2022-12-11T21:06:55.459Z,12.15
2022-12-11T21:09:24.855Z,11.98
2022-12-11T21:11:51.689Z,11.07
2022-12-11T21:14:19.174Z,10.90
2022-12-11T21:16:46.256Z,10.70
2022-12-11T21:19:17.132Z,12.27
2022-12-11T21:22:06.678Z,11.73
2022-12-11T21:24:33.170Z,11.73
2022-12-11T21:27:01.756Z,12.68
2022-12-11T21:29:29.416Z,11.00
2022-12-11T21:31:56.450Z,10.18
2022-12-11T21:34:25.494Z,8.85
2022-12-11T21:36:56.745Z,7.53
2022-12-11T21:39:24.820Z,6.70
2022-12-11T21:41:51.399Z,7.40
2022-12-11T21:47:04.350Z,9.43
2022-12-11T21:49:30.807Z,7.55
2022-12-11T21:52:01.317Z,34.90
2022-12-11T21:54:35.176Z,10.57
2022-12-11T21:57:05.018Z,8.90
2022-12-11T21:59:37.439Z,7.95
2022-12-11T22:02:13.155Z,7.93
2022-12-11T22:04:39.691Z,8.40
2022-12-11T22:07:07.357Z,7.60
2022-12-11T22:09:33.810Z,8.88
2022-12-11T22:12:24.045Z,8.25
2022-12-11T22:15:01.450Z,11.38
2022-12-11T22:17:27.900Z,11.18
2022-12-11T22:19:58.278Z,9.60
2022-12-11T22:22:24.819Z,10.93
2022-12-11T22:24:51.220Z,10.32
2022-12-11T22:27:23.275Z,10.15
2022-12-11T22:29:50.266Z,9.35
2022-12-11T22:32:16.684Z,9.10
2022-12-11T22:34:43.082Z,8.80
2022-12-11T22:37:13.583Z,8.90
2022-12-11T22:39:40.986Z,7.65
2022-12-11T22:42:07.462Z,7.75
2022-12-11T22:44:33.894Z,7.97
2022-12-11T22:47:00.293Z,7.72
2022-12-11T22:49:26.692Z,7.72
2022-12-11T22:51:53.111Z,8.10
2022-12-11T22:54:19.520Z,7.15
2022-12-11T22:56:49.301Z,7.68
2022-12-11T22:59:15.816Z,7.15
2022-12-11T23:01:42.439Z,7.78
2022-12-11T23:04:08.894Z,8.35
2022-12-11T23:06:35.422Z,7.43
2022-12-11T23:09:02.228Z,7.63
2022-12-11T23:11:31.406Z,7.65
2022-12-11T23:14:29.921Z,7.90
2022-12-11T23:16:56.450Z,7.05
2022-12-11T23:19:25.593Z,6.40
2022-12-11T23:21:52.875Z,7.22
2022-12-11T23:24:19.334Z,6.90
2022-12-11T23:26:45.760Z,5.13
2022-12-11T23:29:12.170Z,5.35
2022-12-11T23:31:38.592Z,5.13
2022-12-11T23:34:05.140Z,5.00
2022-12-11T23:36:31.585Z,5.80
2022-12-11T23:39:31.184Z,4.57
2022-12-11T23:41:57.862Z,5.35
2022-12-11T23:44:24.458Z,5.28
2022-12-11T23:46:52.865Z,4.90
2022-12-11T23:49:19.262Z,5.45
2022-12-11T23:51:45.806Z,5.50
2022-12-11T23:54:12.464Z,4.90
2022-12-11T23:56:39.083Z,5.55
2022-12-11T23:59:05.506Z,6.15
